Time;durP1;ratioP1;P1;durP2;ratioP2;P2;SDS_P1;SDS_P2;PMS_P1;PMS_P2;Temp;Humidity;BMP_temperature;BMP_pressure;BME280_temperature;BME280_humidity;BME280_pressure;Samples;Min_cycle;Max_cycle;Signal;HPM_P1;HPM_P2
2021/09/01 00:00:38;;;;;;;14.37;12.13;;;;;;;11.84;100.00;99015.09;5074834;28;20210;-66
2021/09/01 00:03:05;;;;;;;16.20;11.80;;;;;;;11.85;100.00;99013.28;5074481;28;20221;-65
2021/09/01 00:05:32;;;;;;;18.13;14.03;;;;;;;11.87;100.00;99014.91;5074793;28;20245;-66
2021/09/01 00:07:58;;;;;;;29.23;20.37;;;;;;;11.93;100.00;99009.22;5074662;28;20237;-66
2021/09/01 00:10:25;;;;;;;20.13;15.20;;;;;;;11.95;100.00;99011.78;5074492;28;20215;-64
2021/09/01 00:12:52;;;;;;;17.30;13.47;;;;;;;11.93;100.00;99013.69;5074591;28;20211;-64
2021/09/01 00:15:18;;;;;;;15.67;12.83;;;;;;;11.89;100.00;99017.47;5074524;28;20210;-65
2021/09/01 00:17:46;;;;;;;17.43;13.10;;;;;;;11.88;100.00;99021.06;5074291;28;20216;-65
2021/09/01 00:20:13;;;;;;;16.70;12.60;;;;;;;11.87;100.00;99020.19;5072736;28;20211;-66
2021/09/01 00:22:40;;;;;;;16.87;12.50;;;;;;;11.86;100.00;99020.31;5074319;28;20210;-66
2021/09/01 00:25:08;;;;;;;18.00;12.27;;;;;;;11.88;100.00;99026.38;5074046;28;20723;-66
2021/09/01 00:27:35;;;;;;;15.93;12.93;;;;;;;11.90;100.00;99022.69;5074016;28;20234;-65
2021/09/01 00:30:02;;;;;;;16.43;12.53;;;;;;;11.91;100.00;99020.88;5073905;28;20220;-66
2021/09/01 00:32:28;;;;;;;15.13;12.03;;;;;;;11.96;100.00;99018.78;5073886;28;20219;-66
2021/09/01 00:34:56;;;;;;;17.43;13.17;;;;;;;12.02;100.00;99023.72;5074078;28;20264;-65
2021/09/01 00:37:22;;;;;;;15.13;12.37;;;;;;;12.05;100.00;99020.91;5074113;28;20225;-65
2021/09/01 00:39:49;;;;;;;14.60;11.60;;;;;;;12.01;100.00;99016.72;5074132;28;20217;-66
2021/09/01 00:42:15;;;;;;;16.97;12.33;;;;;;;12.00;100.00;99015.03;5073953;28;20221;-66
2021/09/01 00:44:42;;;;;;;17.93;13.10;;;;;;;11.99;100.00;99010.69;5071990;28;20217;-65
2021/09/01 00:47:08;;;;;;;18.07;13.03;;;;;;;11.94;100.00;99018.03;5073837;28;20642;-64
2021/09/01 00:49:35;;;;;;;14.07;11.57;;;;;;;11.92;100.00;99012.84;5073531;28;20226;-64
2021/09/01 00:52:05;;;;;;;15.77;12.23;;;;;;;11.88;100.00;99015.75;5073919;28;20207;-64
2021/09/01 00:54:32;;;;;;;14.50;12.17;;;;;;;11.84;100.00;99014.22;5073814;28;20214;-64
2021/09/01 00:57:02;;;;;;;14.07;11.27;;;;;;;11.84;100.00;99019.53;5073042;28;20207;-64
2021/09/01 00:59:31;;;;;;;16.17;11.43;;;;;;;11.78;100.00;99009.31;5073124;28;20215;-64
2021/09/01 01:01:58;;;;;;;14.40;11.43;;;;;;;11.71;100.00;99008.84;5058975;28;20218;-65
2021/09/01 01:04:26;;;;;;;13.03;9.87;;;;;;;11.65;100.00;99008.34;5069529;28;20567;-65
2021/09/01 01:06:54;;;;;;;13.10;10.90;;;;;;;11.65;100.00;99013.63;5059606;28;20246;-64
2021/09/01 01:09:22;;;;;;;14.87;11.37;;;;;;;11.67;100.00;99015.25;5063123;28;20218;-65
2021/09/01 01:12:04;;;;;;;14.63;10.80;;;;;;;11.63;100.00;99005.78;5066273;28;20568;-65
2021/09/01 01:14:32;;;;;;;13.53;10.63;;;;;;;11.62;100.00;99009.38;5073215;28;20216;-64
2021/09/01 01:16:59;;;;;;;14.30;10.90;;;;;;;11.61;100.00;99009.50;5073329;28;20219;-64
2021/09/01 01:19:25;;;;;;;13.47;10.03;;;;;;;11.62;100.00;99004.06;5073460;28;20209;-64
2021/09/01 01:21:52;;;;;;;12.93;10.07;;;;;;;11.61;100.00;99010.31;5073366;28;20206;-65
2021/09/01 01:24:18;;;;;;;13.37;10.43;;;;;;;11.59;100.00;99009.56;5073214;28;20270;-64
2021/09/01 01:26:46;;;;;;;13.00;10.07;;;;;;;11.57;100.00;99010.56;5073212;28;20210;-64
2021/09/01 01:29:13;;;;;;;14.87;10.77;;;;;;;11.64;100.00;99009.28;5072833;28;20679;-64
2021/09/01 01:31:40;;;;;;;13.90;10.10;;;;;;;11.62;100.00;99005.91;5073190;28;20213;-64
2021/09/01 01:34:12;;;;;;;12.70;10.07;;;;;;;11.57;100.00;99005.28;5072737;28;20213;-66
2021/09/01 01:36:39;;;;;;;12.27;9.80;;;;;;;11.63;100.00;98999.66;5071165;28;20209;-66
2021/09/01 01:39:05;;;;;;;12.17;10.03;;;;;;;11.59;100.00;99006.06;5073336;28;20210;-66
2021/09/01 01:41:32;;;;;;;12.57;9.97;;;;;;;11.57;100.00;99005.28;5072857;28;20213;-65
2021/09/01 01:44:00;;;;;;;13.13;10.30;;;;;;;11.54;100.00;99010.72;5072749;28;20213;-65
2021/09/01 01:46:26;;;;;;;12.53;10.27;;;;;;;11.50;100.00;99003.94;5073133;28;20578;-65
2021/09/01 01:48:53;;;;;;;12.97;9.97;;;;;;;11.48;100.00;99011.09;5072769;28;20242;-66
2021/09/01 01:51:19;;;;;;;13.13;9.90;;;;;;;11.48;100.00;99008.44;5073125;28;20236;-65
2021/09/01 01:53:45;;;;;;;11.43;9.83;;;;;;;11.44;100.00;99007.78;5072918;28;20205;-65
2021/09/01 01:56:12;;;;;;;11.67;9.97;;;;;;;11.42;100.00;99011.47;5072874;28;20569;-66
2021/09/01 01:58:38;;;;;;;12.13;9.73;;;;;;;11.40;100.00;99016.00;5072969;28;20205;-65
2021/09/01 02:01:06;;;;;;;11.00;9.47;;;;;;;11.34;100.00;99013.72;5072709;28;20208;-65
2021/09/01 02:03:33;;;;;;;12.10;9.73;;;;;;;11.30;100.00;99022.75;5071332;28;20224;-65
2021/09/01 02:05:59;;;;;;;12.20;9.70;;;;;;;11.25;100.00;99015.09;5072667;28;20698;-64
2021/09/01 02:08:26;;;;;;;14.83;10.83;;;;;;;11.25;100.00;99014.25;5073595;28;20603;-65
2021/09/01 02:10:52;;;;;;;12.80;9.63;;;;;;;11.22;100.00;99019.72;5076915;28;20216;-65
2021/09/01 02:13:19;;;;;;;16.83;12.03;;;;;;;11.22;100.00;99019.72;5076873;28;20208;-65
2021/09/01 02:15:45;;;;;;;11.97;10.13;;;;;;;11.21;100.00;99018.00;5076936;28;20209;-65
2021/09/01 02:18:13;;;;;;;13.87;10.97;;;;;;;11.17;100.00;99016.47;5076787;28;20209;-65
2021/09/01 02:20:41;;;;;;;13.47;10.80;;;;;;;11.20;100.00;99016.31;5076659;28;20214;-65
2021/09/01 02:23:07;;;;;;;14.13;10.73;;;;;;;11.15;100.00;99021.88;5076650;28;20580;-65
2021/09/01 02:25:34;;;;;;;15.07;10.70;;;;;;;11.13;100.00;99012.31;5076623;28;20210;-65
2021/09/01 02:28:00;;;;;;;17.20;11.53;;;;;;;11.11;100.00;99019.47;5076154;28;20238;-65
2021/09/01 02:30:27;;;;;;;14.17;10.90;;;;;;;11.11;100.00;99016.81;5074772;28;20209;-65
2021/09/01 02:32:53;;;;;;;13.57;11.43;;;;;;;11.08;100.00;99023.13;5076570;28;20219;-65
2021/09/01 02:35:21;;;;;;;13.97;11.17;;;;;;;11.08;100.00;99027.59;5076024;28;20232;-65
2021/09/01 02:37:52;;;;;;;14.87;11.03;;;;;;;11.05;100.00;99028.63;5076120;28;20708;-65
2021/09/01 02:40:19;;;;;;;15.10;11.63;;;;;;;11.04;100.00;99023.41;5076143;28;20225;-65
2021/09/01 02:42:45;;;;;;;14.67;11.63;;;;;;;11.04;100.00;99026.91;5076129;28;20208;-65
2021/09/01 02:45:13;;;;;;;15.60;10.93;;;;;;;10.99;100.00;99023.69;5075932;28;20699;-65
2021/09/01 02:47:40;;;;;;;15.93;12.03;;;;;;;11.00;100.00;99024.53;5076151;28;20232;-65
2021/09/01 02:50:08;;;;;;;14.87;11.87;;;;;;;11.00;100.00;99030.66;5075897;28;20216;-65
2021/09/01 02:52:36;;;;;;;15.40;11.50;;;;;;;10.95;100.00;99026.59;5076142;28;20212;-65
2021/09/01 02:55:02;;;;;;;14.93;11.70;;;;;;;10.89;100.00;99026.94;5074472;28;20215;-65
2021/09/01 02:57:29;;;;;;;14.33;11.47;;;;;;;10.86;100.00;99027.09;5075655;28;20218;-65
2021/09/01 02:59:55;;;;;;;14.20;11.40;;;;;;;10.86;100.00;99030.59;5075752;28;20668;-65
2021/09/01 03:02:22;;;;;;;13.67;11.17;;;;;;;10.81;100.00;99023.84;5075861;28;20208;-66
2021/09/01 03:04:48;;;;;;;14.07;10.87;;;;;;;10.76;100.00;99034.69;5075926;28;20213;-65
2021/09/01 03:07:15;;;;;;;14.63;11.13;;;;;;;10.77;100.00;99032.91;5075641;28;20203;-65
2021/09/01 03:09:43;;;;;;;13.87;11.57;;;;;;;10.73;100.00;99036.66;5075830;28;20209;-64
2021/09/01 03:12:09;;;;;;;15.47;11.93;;;;;;;10.67;100.00;99035.22;5075717;28;20210;-65
2021/09/01 03:14:36;;;;;;;12.43;9.93;;;;;;;10.61;100.00;99037.34;5075645;28;20223;-65
2021/09/01 03:17:02;;;;;;;13.40;10.37;;;;;;;10.53;100.00;99028.97;5075497;28;20219;-65
2021/09/01 03:19:29;;;;;;;10.53;8.57;;;;;;;10.45;100.00;99033.84;5075209;28;20204;-65
2021/09/01 03:21:55;;;;;;;10.47;9.37;;;;;;;10.39;100.00;99028.88;5073457;28;20214;-65
2021/09/01 03:24:22;;;;;;;12.93;10.37;;;;;;;10.42;100.00;99028.69;5075430;28;20708;-65
2021/09/01 03:26:49;;;;;;;13.03;10.10;;;;;;;10.40;100.00;99031.41;5075603;28;20211;-65
2021/09/01 03:29:16;;;;;;;13.97;9.83;;;;;;;10.42;100.00;99036.63;5075300;28;20239;-65
2021/09/01 03:31:42;;;;;;;12.73;10.10;;;;;;;10.46;100.00;99040.81;5075108;28;20203;-65
2021/09/01 03:34:09;;;;;;;12.97;9.90;;;;;;;10.53;100.00;99036.91;5075208;28;20225;-65
2021/09/01 03:36:36;;;;;;;12.70;10.27;;;;;;;10.63;100.00;99040.72;5075464;28;20214;-65
2021/09/01 03:39:03;;;;;;;12.87;9.90;;;;;;;10.69;100.00;99045.69;5075171;28;20211;-65
2021/09/01 03:41:29;;;;;;;13.43;10.47;;;;;;;10.75;100.00;99045.34;5075283;28;20214;-65
2021/09/01 03:43:57;;;;;;;12.73;9.67;;;;;;;10.85;100.00;99039.47;5075053;28;20209;-65
2021/09/01 03:46:23;;;;;;;14.33;9.93;;;;;;;10.94;100.00;99048.69;5073944;28;20216;-65
2021/09/01 03:48:50;;;;;;;18.20;11.30;;;;;;;10.99;100.00;99036.03;5074434;28;20238;-65
2021/09/01 03:51:16;;;;;;;24.20;12.20;;;;;;;11.05;100.00;99043.63;5074781;28;20222;-65
2021/09/01 03:53:43;;;;;;;20.10;11.23;;;;;;;11.11;100.00;99045.94;5074668;28;20222;-65
2021/09/01 03:56:09;;;;;;;18.73;11.43;;;;;;;11.14;100.00;99049.25;5074569;28;20222;-65
2021/09/01 03:58:36;;;;;;;15.00;10.53;;;;;;;11.19;100.00;99047.19;5074910;28;20242;-65
2021/09/01 04:01:04;;;;;;;15.40;11.10;;;;;;;11.22;100.00;99047.03;5074682;28;20237;-65
2021/09/01 04:03:30;;;;;;;14.60;10.63;;;;;;;11.24;100.00;99050.44;5074693;28;20224;-65
2021/09/01 04:05:57;;;;;;;13.33;10.20;;;;;;;11.20;100.00;99053.34;5074934;28;20219;-65
2021/09/01 04:08:23;;;;;;;11.67;9.30;;;;;;;11.15;100.00;99050.13;5074479;28;20237;-65
2021/09/01 04:10:50;;;;;;;11.07;9.67;;;;;;;11.12;100.00;99045.84;5074614;28;20211;-65
2021/09/01 04:13:16;;;;;;;11.40;9.83;;;;;;;11.04;100.00;99052.50;5072573;28;20211;-65
2021/09/01 04:15:43;;;;;;;10.33;9.03;;;;;;;10.98;100.00;99044.91;5074608;28;20211;-65
2021/09/01 04:18:11;;;;;;;10.30;8.57;;;;;;;10.91;100.00;99043.56;5074397;28;20208;-65
2021/09/01 04:20:37;;;;;;;11.43;9.60;;;;;;;10.79;100.00;99050.41;5074582;28;20221;-65
2021/09/01 04:23:04;;;;;;;10.33;9.10;;;;;;;10.77;100.00;99059.34;5074218;28;20207;-65
2021/09/01 04:25:30;;;;;;;10.90;9.00;;;;;;;10.76;100.00;99063.78;5074368;28;20290;-65
2021/09/01 04:27:57;;;;;;;9.63;8.27;;;;;;;10.80;100.00;99065.31;5074240;28;20631;-65
2021/09/01 04:30:23;;;;;;;11.13;9.60;;;;;;;10.86;100.00;99066.75;5074181;28;20211;-65
2021/09/01 04:32:50;;;;;;;10.60;9.33;;;;;;;10.91;100.00;99057.66;5074306;28;20553;-65
2021/09/01 04:35:18;;;;;;;10.67;9.30;;;;;;;10.95;100.00;99063.63;5074105;28;20227;-65
2021/09/01 04:37:44;;;;;;;11.43;9.40;;;;;;;10.96;100.00;99060.88;5074084;28;20580;-65
2021/09/01 04:40:12;;;;;;;10.60;9.50;;;;;;;10.98;100.00;99069.59;5072474;28;20213;-65
2021/09/01 04:42:38;;;;;;;10.17;9.07;;;;;;;11.02;100.00;99062.34;5073983;28;20211;-65
2021/09/01 04:45:06;;;;;;;10.70;9.57;;;;;;;11.04;100.00;99057.81;5073789;28;20681;-65
2021/09/01 04:47:32;;;;;;;11.43;9.60;;;;;;;11.07;100.00;99062.94;5073835;28;20222;-65
2021/09/01 04:49:59;;;;;;;10.27;8.83;;;;;;;11.10;100.00;99060.09;5073743;28;20234;-65
2021/09/01 04:52:26;;;;;;;9.50;8.47;;;;;;;11.12;100.00;99056.44;5073949;28;20210;-65
2021/09/01 04:54:53;;;;;;;9.60;8.60;;;;;;;11.16;100.00;99057.09;5073874;28;20205;-65
2021/09/01 04:57:20;;;;;;;11.93;9.53;;;;;;;11.22;100.00;99062.06;5073903;28;20208;-65
2021/09/01 04:59:46;;;;;;;11.83;9.87;;;;;;;11.28;100.00;99059.06;5073777;28;20209;-65
2021/09/01 05:02:13;;;;;;;12.70;10.40;;;;;;;11.33;100.00;99070.22;5073650;28;20205;-65
2021/09/01 05:04:39;;;;;;;11.63;9.37;;;;;;;11.34;100.00;99071.94;5072001;28;20218;-65
2021/09/01 05:07:06;;;;;;;10.93;8.47;;;;;;;11.32;100.00;99077.31;5073430;28;20207;-65
2021/09/01 05:09:33;;;;;;;11.03;9.23;;;;;;;11.33;100.00;99071.09;5073489;28;20236;-65
2021/09/01 05:12:00;;;;;;;13.87;9.20;;;;;;;11.34;100.00;99075.44;5073625;28;20211;-65
2021/09/01 05:14:27;;;;;;;18.00;9.80;;;;;;;11.33;100.00;99075.53;5073296;28;20683;-65
2021/09/01 05:16:53;;;;;;;18.87;11.20;;;;;;;11.34;100.00;99083.38;5073537;28;20214;-64
2021/09/01 05:19:20;;;;;;;15.07;9.90;;;;;;;11.36;100.00;99070.03;5073494;28;20222;-64
2021/09/01 05:21:51;;;;;;;18.73;11.30;;;;;;;11.37;100.00;99075.25;5073381;28;20212;-64
2021/09/01 05:24:29;;;;;;;16.00;9.80;;;;;;;11.43;100.00;99082.00;5073326;28;20211;-64
2021/09/01 05:27:04;;;;;;;17.70;10.40;;;;;;;11.46;100.00;99087.13;5073333;28;20626;-64
2021/09/01 05:29:32;;;;;;;13.43;9.83;;;;;;;11.53;100.00;99085.81;5073065;28;20233;-65
2021/09/01 05:31:59;;;;;;;15.37;11.60;;;;;;;11.61;100.00;99089.75;5071368;28;20704;-63
2021/09/01 05:34:26;;;;;;;22.37;13.83;;;;;;;11.62;100.00;99093.28;5073103;28;20235;-64
2021/09/01 05:36:53;;;;;;;19.20;13.87;;;;;;;11.66;100.00;99089.47;5073143;28;20209;-63
2021/09/01 05:39:21;;;;;;;23.50;14.33;;;;;;;11.73;100.00;99093.50;5073112;28;20215;-64
2021/09/01 05:41:47;;;;;;;18.83;14.27;;;;;;;11.81;100.00;99084.13;5073088;28;20212;-63
2021/09/01 05:44:15;;;;;;;15.73;12.13;;;;;;;11.81;100.00;99084.13;5072660;28;20212;-64
2021/09/01 05:46:42;;;;;;;20.67;13.20;;;;;;;11.87;100.00;99082.94;5073053;28;20593;-63
2021/09/01 05:49:11;;;;;;;18.77;13.50;;;;;;;11.92;100.00;99086.19;5072940;28;20623;-63
2021/09/01 05:51:38;;;;;;;17.00;12.77;;;;;;;12.01;100.00;99088.25;5072663;28;20214;-64
2021/09/01 05:54:04;;;;;;;16.20;12.43;;;;;;;12.04;100.00;99090.75;5072993;28;20233;-64
2021/09/01 05:56:35;;;;;;;16.90;12.73;;;;;;;12.14;100.00;99091.88;5071058;28;20203;-65
2021/09/01 05:59:08;;;;;;;15.33;12.40;;;;;;;12.22;100.00;99090.47;5072719;28;20206;-64
2021/09/01 06:01:40;;;;;;;13.80;11.10;;;;;;;12.28;100.00;99091.91;5072907;28;20259;-64
2021/09/01 06:04:09;;;;;;;11.37;9.63;;;;;;;12.31;100.00;99100.53;5072616;28;20215;-64
2021/09/01 06:06:37;;;;;;;10.57;9.33;;;;;;;12.40;100.00;99092.00;5072596;28;20212;-65
2021/09/01 06:09:03;;;;;;;12.20;9.60;;;;;;;12.47;100.00;99095.97;5072518;28;20712;-63
2021/09/01 06:11:31;;;;;;;10.23;9.20;;;;;;;12.55;100.00;99096.38;5072748;28;20210;-64
2021/09/01 06:13:57;;;;;;;11.70;9.73;;;;;;;12.67;100.00;99092.09;5072805;28;20218;-64
2021/09/01 06:16:24;;;;;;;10.13;9.10;;;;;;;12.67;100.00;99097.41;5072875;28;20205;-65
2021/09/01 06:18:52;;;;;;;10.97;9.70;;;;;;;12.66;100.00;99096.53;5072942;28;20211;-64
2021/09/01 06:21:18;;;;;;;9.57;8.53;;;;;;;12.67;100.00;99097.41;5072876;28;20221;-64
2021/09/01 06:23:45;;;;;;;11.57;9.67;;;;;;;12.73;100.00;99097.03;5071019;28;20213;-64
2021/09/01 06:26:12;;;;;;;10.53;9.20;;;;;;;12.78;100.00;99095.78;5072640;28;20240;-64
2021/09/01 06:28:38;;;;;;;10.03;9.00;;;;;;;12.85;100.00;99091.78;5072616;28;20359;-64
2021/09/01 06:31:06;;;;;;;12.33;10.10;;;;;;;12.98;100.00;99087.47;5072751;28;20210;-64
2021/09/01 06:33:33;;;;;;;12.20;10.43;;;;;;;13.17;100.00;99092.41;5072460;28;20214;-64
2021/09/01 06:36:01;;;;;;;10.33;8.93;;;;;;;13.26;100.00;99089.19;5072504;28;20247;-64
2021/09/01 06:38:27;;;;;;;12.03;10.23;;;;;;;13.34;100.00;99094.84;5072609;28;20211;-64
2021/09/01 06:40:54;;;;;;;13.33;10.80;;;;;;;13.45;100.00;99097.66;5072368;28;20218;-64
2021/09/01 06:43:20;;;;;;;13.27;10.80;;;;;;;13.55;100.00;99098.75;5072622;28;20221;-64
2021/09/01 06:45:48;;;;;;;12.53;10.70;;;;;;;13.67;100.00;99105.91;5072622;28;20211;-64
2021/09/01 06:48:15;;;;;;;14.87;11.87;;;;;;;13.83;100.00;99103.94;5072520;28;20290;-64
2021/09/01 06:50:42;;;;;;;13.33;10.63;;;;;;;13.92;100.00;99105.97;5070927;28;20301;-64
2021/09/01 06:53:12;;;;;;;12.40;10.93;;;;;;;13.97;100.00;99117.13;5072496;28;20215;-64
2021/09/01 06:55:38;;;;;;;12.27;10.20;;;;;;;14.00;100.00;99111.63;5073561;28;20239;-64
2021/09/01 06:58:14;;;;;;;13.27;11.07;;;;;;;13.99;100.00;99116.09;5074755;28;20211;-64
2021/09/01 07:00:40;;;;;;;12.90;11.30;;;;;;;13.99;100.00;99112.59;5073392;28;20309;-65
2021/09/01 07:03:07;;;;;;;14.53;11.17;;;;;;;14.00;100.00;99127.59;5074712;28;20211;-65
2021/09/01 07:05:33;;;;;;;14.53;11.73;;;;;;;14.04;100.00;99123.75;5063395;28;20211;-64
2021/09/01 07:08:00;;;;;;;16.13;13.17;;;;;;;14.10;100.00;99120.66;5056752;28;20209;-64
2021/09/01 07:10:27;;;;;;;16.77;12.87;;;;;;;14.13;100.00;99117.81;5073631;28;20264;-64
2021/09/01 07:12:54;;;;;;;17.37;13.27;;;;;;;14.27;100.00;99121.28;5074943;28;20215;-65
2021/09/01 07:15:20;;;;;;;16.93;13.20;;;;;;;14.40;100.00;99126.59;5072223;28;20211;-65
2021/09/01 07:17:47;;;;;;;16.33;13.13;;;;;;;14.48;100.00;99133.09;5075243;28;20213;-65
2021/09/01 07:20:15;;;;;;;18.50;13.93;;;;;;;14.56;100.00;99127.25;5074682;28;20214;-65
2021/09/01 07:22:41;;;;;;;19.90;14.57;;;;;;;14.68;100.00;99131.72;5073934;28;20675;-65
2021/09/01 07:25:09;;;;;;;19.67;14.27;;;;;;;14.80;100.00;99137.00;5074858;28;20583;-65
2021/09/01 07:27:37;;;;;;;18.37;14.40;;;;;;;14.93;100.00;99131.69;5074686;28;20553;-65
2021/09/01 07:30:05;;;;;;;19.17;14.60;;;;;;;15.08;100.00;99135.91;5073611;28;20615;-65
2021/09/01 07:32:31;;;;;;;19.70;14.43;;;;;;;15.07;100.00;99143.06;5074383;28;20692;-65
2021/09/01 07:34:58;;;;;;;18.47;14.77;;;;;;;15.09;100.00;99148.28;5074116;28;20232;-65
2021/09/01 07:37:24;;;;;;;18.27;14.33;;;;;;;15.07;100.00;99144.84;5072909;28;20204;-65
2021/09/01 07:39:51;;;;;;;18.57;15.33;;;;;;;15.07;100.00;99147.53;5073615;28;20548;-65
2021/09/01 07:42:17;;;;;;;17.13;14.17;;;;;;;15.01;100.00;99150.63;5071930;28;20700;-65
2021/09/01 07:44:45;;;;;;;18.50;13.93;;;;;;;14.98;100.00;99153.50;5074410;28;20213;-65
2021/09/01 07:47:12;;;;;;;20.43;15.93;;;;;;;15.11;100.00;99157.00;5074999;28;20212;-65
2021/09/01 07:49:39;;;;;;;21.10;16.10;;;;;;;15.20;100.00;99159.00;5075117;28;20239;-65
2021/09/01 07:52:06;;;;;;;20.97;16.43;;;;;;;15.33;100.00;99151.88;5075014;28;20304;-65
2021/09/01 07:54:32;;;;;;;22.10;17.57;;;;;;;15.37;100.00;99166.66;5075003;28;20219;-65
2021/09/01 07:56:59;;;;;;;23.10;17.80;;;;;;;15.54;100.00;99152.97;5074984;28;20213;-65
2021/09/01 07:59:25;;;;;;;22.50;17.00;;;;;;;15.72;100.00;99165.81;5075041;28;20214;-65
2021/09/01 08:01:53;;;;;;;20.10;15.60;;;;;;;15.88;100.00;99173.53;5074943;28;20216;-65
2021/09/01 08:04:19;;;;;;;22.13;16.10;;;;;;;15.96;100.00;99173.81;5074505;28;20213;-65
2021/09/01 08:06:46;;;;;;;21.23;16.60;;;;;;;16.01;100.00;99179.66;5074237;28;20206;-65
2021/09/01 08:09:12;;;;;;;22.43;16.90;;;;;;;16.09;100.00;99181.63;5072969;28;20232;-65
2021/09/01 08:11:40;;;;;;;20.23;15.73;;;;;;;16.19;100.00;99174.63;5074499;28;20205;-65
2021/09/01 08:14:06;;;;;;;20.67;16.40;;;;;;;16.18;100.00;99175.59;5074690;28;20702;-65
2021/09/01 08:16:33;;;;;;;22.20;17.57;;;;;;;16.22;100.00;99179.72;5074592;28;20216;-65
2021/09/01 08:19:00;;;;;;;18.37;15.23;;;;;;;16.24;100.00;99185.81;5074413;28;20290;-65
2021/09/01 08:21:27;;;;;;;20.27;15.90;;;;;;;16.25;100.00;99187.50;5074398;28;20216;-65
2021/09/01 08:23:53;;;;;;;21.93;17.30;;;;;;;16.24;100.00;99185.81;5074605;28;20210;-65
2021/09/01 08:26:20;;;;;;;20.60;16.40;;;;;;;16.26;100.00;99181.22;5074513;28;20207;-66
2021/09/01 08:28:46;;;;;;;19.33;16.27;;;;;;;16.52;100.00;99180.09;5074019;28;20220;-66
2021/09/01 08:31:13;;;;;;;20.37;16.60;;;;;;;16.79;100.00;99177.97;5074387;28;20218;-66
2021/09/01 08:33:40;;;;;;;21.83;16.50;;;;;;;17.12;100.00;99180.66;5072596;28;20221;-65
2021/09/01 08:36:08;;;;;;;21.40;16.70;;;;;;;17.46;100.00;99182.41;5073733;28;20234;-66
2021/09/01 08:38:34;;;;;;;18.30;15.63;;;;;;;17.60;100.00;99186.59;5073930;28;20215;-66
2021/09/01 08:41:01;;;;;;;21.20;16.30;;;;;;;17.49;100.00;99192.81;5074076;28;20586;-66
2021/09/01 08:43:27;;;;;;;19.23;15.50;;;;;;;17.43;100.00;99181.78;5074079;28;20222;-65
2021/09/01 08:45:54;;;;;;;21.80;16.47;;;;;;;17.49;100.00;99189.31;5073702;28;20226;-65
2021/09/01 08:48:22;;;;;;;20.60;16.60;;;;;;;17.42;100.00;99185.41;5074081;28;20214;-65
2021/09/01 08:50:49;;;;;;;21.97;17.30;;;;;;;17.61;100.00;99189.16;5073670;28;20235;-66
2021/09/01 08:53:16;;;;;;;22.33;17.70;;;;;;;17.86;100.00;99188.84;5073598;28;20219;-66
2021/09/01 08:55:43;;;;;;;20.90;18.07;;;;;;;18.09;100.00;99194.97;5073887;28;20207;-65
2021/09/01 08:58:10;;;;;;;19.97;16.77;;;;;;;18.07;100.00;99192.47;5073876;28;20218;-66
2021/09/01 09:00:36;;;;;;;21.97;17.83;;;;;;;17.85;100.00;99191.69;5071814;28;20212;-66
2021/09/01 09:03:03;;;;;;;18.97;16.50;;;;;;;17.59;100.00;99191.13;5073775;28;20211;-66
2021/09/01 09:05:34;;;;;;;20.80;16.30;;;;;;;17.49;100.00;99194.66;5073423;28;20221;-66
2021/09/01 09:08:02;;;;;;;21.37;17.50;;;;;;;17.33;100.00;99188.81;5073695;28;20217;-66
2021/09/01 09:10:33;;;;;;;21.00;17.87;;;;;;;17.13;100.00;99186.88;5073232;28;21864;-65
2021/09/01 09:13:02;;;;;;;21.57;18.80;;;;;;;17.03;100.00;99186.75;5073168;28;20216;-66
2021/09/01 09:15:29;;;;;;;23.00;18.77;;;;;;;16.84;100.00;99180.28;5073250;28;20237;-66
2021/09/01 09:17:55;;;;;;;26.40;20.97;;;;;;;16.81;100.00;99178.69;5072840;28;20208;-65
2021/09/01 09:20:27;;;;;;;28.17;22.33;;;;;;;16.63;100.00;99177.47;5073187;28;20215;-66
2021/09/01 09:22:54;;;;;;;23.83;20.53;;;;;;;16.33;100.00;99177.09;5073538;28;20211;-65
2021/09/01 09:25:23;;;;;;;25.30;20.63;;;;;;;16.23;100.00;99169.91;5071669;28;20214;-66
2021/09/01 09:27:53;;;;;;;24.90;20.33;;;;;;;16.19;100.00;99169.31;5073118;28;20301;-66
2021/09/01 09:30:31;;;;;;;19.47;17.37;;;;;;;16.24;100.00;99175.16;5073246;28;20231;-66
2021/09/01 09:33:00;;;;;;;21.93;17.70;;;;;;;16.18;100.00;99164.94;5073260;28;20218;-66
2021/09/01 09:35:28;;;;;;;19.53;17.07;;;;;;;16.26;100.00;99167.00;5073240;28;20254;-65
2021/09/01 09:38:04;;;;;;;18.97;15.67;;;;;;;16.33;100.00;99169.09;5073210;28;20235;-65
2021/09/01 09:40:31;;;;;;;17.70;14.53;;;;;;;16.44;100.00;99160.31;5072980;28;20687;-66
2021/09/01 09:43:12;;;;;;;32.93;19.17;;;;;;;16.70;100.00;99168.00;5073208;28;20210;-66
2021/09/01 09:45:39;;;;;;;18.00;15.07;;;;;;;16.99;100.00;99163.91;5073283;28;20214;-65
2021/09/01 09:48:06;;;;;;;16.33;14.23;;;;;;;17.10;100.00;99168.41;5073149;28;20216;-65
2021/09/01 09:50:33;;;;;;;16.67;14.77;;;;;;;17.30;100.00;99167.66;5072908;28;20238;-65
2021/09/01 09:53:00;;;;;;;14.30;12.80;;;;;;;17.34;100.00;99169.13;5071506;28;20211;-66
2021/09/01 09:55:26;;;;;;;16.43;13.30;;;;;;;17.39;100.00;99167.84;5072851;28;20207;-66
2021/09/01 09:57:55;;;;;;;14.03;12.53;;;;;;;17.39;100.00;99162.47;5073142;28;20218;-66
2021/09/01 10:00:25;;;;;;;14.83;13.03;;;;;;;17.42;100.00;99154.19;5073147;28;20215;-66
2021/09/01 10:02:51;;;;;;;14.37;12.60;;;;;;;17.59;100.00;99148.34;5072956;28;20211;-65
2021/09/01 10:05:19;;;;;;;13.67;11.60;;;;;;;17.68;100.00;99147.56;5072908;28;20583;-65
2021/09/01 10:07:47;;;;;;;11.73;10.33;;;;;;;17.88;100.00;99148.63;5073029;28;20218;-65
2021/09/01 10:10:14;;;;;;;12.27;9.37;;;;;;;18.02;100.00;99151.84;5072627;28;20235;-65
2021/09/01 10:12:43;;;;;;;9.83;8.83;;;;;;;18.20;100.00;99150.31;5072529;28;20213;-65
2021/09/01 10:15:15;;;;;;;9.53;8.37;;;;;;;18.35;100.00;99146.38;5072836;28;20580;-65
2021/09/01 10:17:46;;;;;;;9.27;7.87;;;;;;;18.45;100.00;99144.63;5070914;28;20203;-65
2021/09/01 10:20:17;;;;;;;8.67;6.77;;;;;;;18.52;99.99;99145.78;5072517;28;20669;-65
2021/09/01 10:22:44;;;;;;;9.47;8.30;;;;;;;18.73;99.16;99145.78;5072778;28;20219;-65
2021/09/01 10:25:34;;;;;;;9.97;7.20;;;;;;;18.81;93.89;99136.09;5072750;28;20206;-65
2021/09/01 10:28:32;;;;;;;7.60;6.80;;;;;;;18.84;90.41;99132.31;5072500;28;20212;-65
2021/09/01 10:31:23;;;;;;;8.80;7.50;;;;;;;18.94;94.86;99131.38;5074779;28;20228;-65
2021/09/01 10:33:53;;;;;;;7.47;6.77;;;;;;;19.05;95.21;99128.59;5076266;28;20208;-65
2021/09/01 10:36:48;;;;;;;8.10;6.17;;;;;;;19.25;93.51;99130.41;5076652;28;20262;-65
2021/09/01 10:39:46;;;;;;;6.70;5.50;;;;;;;19.41;89.22;99130.75;5076428;28;20219;-65
2021/09/01 10:42:42;;;;;;;6.67;6.00;;;;;;;19.66;86.14;99134.72;5075805;28;20676;-65
2021/09/01 10:45:13;;;;;;;6.03;5.43;;;;;;;19.80;84.81;99137.88;5073124;28;20219;-65
2021/09/01 10:48:07;;;;;;;5.90;5.13;;;;;;;19.98;78.79;99130.81;5074744;28;20215;-65
2021/09/01 10:50:37;;;;;;;5.73;4.90;;;;;;;20.10;81.64;99129.75;5075232;28;20235;-65
2021/09/01 10:53:07;;;;;;;7.50;5.80;;;;;;;20.28;79.11;99132.53;5073390;28;20575;-66
2021/09/01 10:55:46;;;;;;;6.13;5.43;;;;;;;20.15;74.14;99134.66;5074233;28;20208;-65
2021/09/01 10:58:21;;;;;;;4.97;4.53;;;;;;;20.19;73.25;99126.19;5075482;28;20215;-65
2021/09/01 11:00:56;;;;;;;5.37;4.87;;;;;;;20.40;75.80;99129.56;5074146;28;20206;-64
2021/09/01 11:03:32;;;;;;;5.10;4.60;;;;;;;20.64;74.19;99124.59;5074732;28;20207;-65
2021/09/01 11:06:15;;;;;;;5.30;4.80;;;;;;;20.80;74.91;99122.13;5074814;28;20218;-65
2021/09/01 11:09:08;;;;;;;6.20;5.00;;;;;;;21.17;75.18;99117.66;5073174;28;20696;-65
2021/09/01 11:11:40;;;;;;;5.67;4.90;;;;;;;21.53;73.38;99116.75;5073592;28;20594;-65
2021/09/01 11:14:07;;;;;;;6.43;5.40;;;;;;;21.72;72.29;99122.06;5074403;28;20671;-65
2021/09/01 11:16:33;;;;;;;5.60;5.10;;;;;;;21.49;69.74;99123.44;5074121;28;20211;-65
2021/09/01 11:19:02;;;;;;;5.50;5.00;;;;;;;21.29;75.50;99121.84;5074997;28;20299;-65